Time;durP1;ratioP1;P1;durP2;ratioP2;P2;SDS_P1;SDS_P2;PMS_P1;PMS_P2;Temp;Humidity;BMP_temperature;BMP_pressure;BME280_temperature;BME280_humidity;BME280_pressure;Samples;Min_cycle;Max_cycle;Signal;HPM_P1;HPM_P2
2022/06/20 00:00:17;;;;;;;2.67;1.15;;;16.00;96.80;;;;;;6001500;29;20589;-68
2022/06/20 00:03:26;;;;;;;2.10;1.13;;;16.00;96.60;;;;;;6001614;29;20319;-68
2022/06/20 00:06:32;;;;;;;1.23;1.00;;;16.00;96.70;;;;;;6001802;29;20299;-68
2022/06/20 00:09:37;;;;;;;0.95;0.95;;;16.00;96.80;;;;;;6001556;29;20307;-68
2022/06/20 00:12:44;;;;;;;0.82;0.82;;;16.00;96.70;;;;;;6001024;29;20395;-68
2022/06/20 00:15:52;;;;;;;1.05;1.02;;;16.10;97.60;;;;;;6001566;29;20278;-68
2022/06/20 00:18:57;;;;;;;1.20;1.02;;;16.00;98.10;;;;;;6001090;29;20375;-67
2022/06/20 00:22:03;;;;;;;1.27;1.17;;;16.00;97.90;;;;;;6001081;29;20505;-68
2022/06/20 00:25:09;;;;;;;1.00;1.00;;;15.90;97.90;;;;;;6001273;29;20311;-68
2022/06/20 00:28:17;;;;;;;0.90;0.90;;;15.90;97.80;;;;;;6000664;29;20298;-68
2022/06/20 00:31:22;;;;;;;1.27;1.00;;;15.90;98.10;;;;;;6001910;29;20280;-68
2022/06/20 00:34:28;;;;;;;0.85;0.85;;;15.80;98.60;;;;;;6001162;29;20307;-68
2022/06/20 00:37:33;;;;;;;4.40;1.10;;;15.80;98.90;;;;;;6000683;29;20283;-68
2022/06/20 00:40:41;;;;;;;1.00;1.00;;;15.80;98.90;;;;;;6001673;29;20348;-68
2022/06/20 00:43:50;;;;;;;0.80;0.80;;;15.80;99.00;;;;;;6000640;29;20490;-68
2022/06/20 00:47:00;;;;;;;1.10;1.10;;;15.90;99.20;;;;;;6001428;29;20299;-67
2022/06/20 00:50:12;;;;;;;1.00;1.00;;;15.70;99.90;;;;;;6000846;29;20303;-68
2022/06/20 00:53:24;;;;;;;1.52;1.15;;;15.80;99.90;;;;;;6000343;29;20302;-68
2022/06/20 00:56:34;;;;;;;0.98;0.98;;;15.70;99.90;;;;;;6001286;29;20288;-68
2022/06/20 00:59:46;;;;;;;1.38;1.25;;;15.70;99.90;;;;;;6000553;29;20303;-68
2022/06/20 01:02:56;;;;;;;0.85;0.85;;;15.60;99.90;;;;;;6000610;29;20303;-68
2022/06/20 01:06:06;;;;;;;1.67;0.90;;;15.70;99.90;;;;;;6000981;29;20306;-68
2022/06/20 01:09:14;;;;;;;0.82;0.82;;;15.60;99.90;;;;;;6000675;29;20307;-68
2022/06/20 01:12:22;;;;;;;1.00;0.98;;;15.50;99.90;;;;;;6000720;29;20560;-68
2022/06/20 01:15:37;;;;;;;0.75;0.75;;;15.60;99.90;;;;;;6000421;29;20283;-68
2022/06/20 01:18:45;;;;;;;1.85;1.00;;;15.60;99.90;;;;;;6000365;29;20299;-68
2022/06/20 01:21:51;;;;;;;1.30;1.10;;;15.60;99.90;;;;;;6001016;29;20310;-67
2022/06/20 01:25:09;;;;;;;1.00;1.00;;;15.50;99.90;;;;;;6000369;29;20310;-68
2022/06/20 01:28:22;;;;;;;1.17;1.17;;;15.50;99.90;;;;;;6000212;29;20306;-68
2022/06/20 01:31:33;;;;;;;1.17;0.88;;;15.40;99.90;;;;;;6000622;29;20279;-68
2022/06/20 01:34:38;;;;;;;5.43;0.90;;;15.40;99.90;;;;;;6000276;29;20299;-68
2022/06/20 01:37:43;;;;;;;0.90;0.90;;;15.50;99.90;;;;;;6000605;29;20299;-68
2022/06/20 01:44:17;;;;;;;1.05;0.77;;;15.30;99.90;;;;;;6004394;29;20315;-68
2022/06/20 01:47:23;;;;;;;0.98;0.98;;;15.30;99.90;;;;;;6003617;29;20299;-68
2022/06/20 01:50:30;;;;;;;1.65;1.05;;;15.30;99.90;;;;;;6004208;29;20280;-68
2022/06/20 01:53:35;;;;;;;1.08;1.08;;;15.20;99.90;;;;;;6003969;29;20302;-67
2022/06/20 01:56:41;;;;;;;2.85;1.10;;;15.20;99.90;;;;;;6004444;29;20457;-66
2022/06/20 01:59:56;;;;;;;0.90;0.90;;;15.20;99.90;;;;;;6003598;29;20602;-67
2022/06/20 02:03:07;;;;;;;2.03;1.10;;;15.20;99.90;;;;;;6003562;29;20322;-67
2022/06/20 02:06:15;;;;;;;2.80;1.13;;;15.10;99.90;;;;;;6003774;29;20279;-67
2022/06/20 02:09:20;;;;;;;0.98;0.98;;;15.10;99.90;;;;;;6003505;29;20398;-67
2022/06/20 02:12:26;;;;;;;2.80;0.82;;;15.20;99.90;;;;;;6003198;29;20468;-67
2022/06/20 02:15:34;;;;;;;0.95;0.90;;;15.20;99.90;;;;;;6003488;29;20278;-67
2022/06/20 02:18:43;;;;;;;1.05;0.80;;;15.20;99.90;;;;;;6003441;29;20307;-67
2022/06/20 02:21:49;;;;;;;0.90;0.90;;;15.20;99.90;;;;;;6003607;29;20303;-67
2022/06/20 02:24:57;;;;;;;1.08;1.00;;;15.20;99.90;;;;;;6003081;29;20310;-67
2022/06/20 02:28:07;;;;;;;1.38;0.88;;;15.10;99.90;;;;;;6003077;29;20302;-67
2022/06/20 02:31:14;;;;;;;1.73;0.90;;;15.20;99.90;;;;;;6003412;29;20279;-67
2022/06/20 02:34:19;;;;;;;0.70;0.70;;;15.10;99.90;;;;;;6003004;29;20468;-67
2022/06/20 02:37:26;;;;;;;1.00;1.00;;;15.20;99.90;;;;;;6002909;29;20279;-67
2022/06/20 02:40:33;;;;;;;0.80;0.80;;;15.10;99.90;;;;;;6003598;29;20283;-67
2022/06/20 02:43:40;;;;;;;2.60;0.90;;;15.20;99.90;;;;;;6002729;29;20299;-68
2022/06/20 02:46:48;;;;;;;1.00;1.00;;;15.20;99.90;;;;;;6003468;29;20284;-67
2022/06/20 02:49:56;;;;;;;1.00;1.00;;;15.20;99.90;;;;;;6002577;29;20316;-67
2022/06/20 02:53:06;;;;;;;2.55;1.00;;;15.20;99.90;;;;;;6002983;29;20295;-67
2022/06/20 02:56:17;;;;;;;1.00;1.00;;;15.20;99.90;;;;;;6003161;29;20275;-67
2022/06/20 02:59:26;;;;;;;2.15;1.10;;;15.10;99.90;;;;;;6002698;29;20302;-68
2022/06/20 03:02:36;;;;;;;2.08;1.02;;;15.20;99.90;;;;;;5999684;29;20484;-67
2022/06/20 03:05:41;;;;;;;1.20;1.00;;;15.20;99.90;;;;;;6002617;29;20271;-68
2022/06/20 03:08:47;;;;;;;0.98;0.88;;;15.20;99.90;;;;;;6002291;29;20493;-68
2022/06/20 03:11:52;;;;;;;1.25;1.00;;;15.20;99.90;;;;;;6002630;29;20271;-68
2022/06/20 03:14:59;;;;;;;0.90;0.90;;;15.20;99.90;;;;;;6002284;29;20302;-68
2022/06/20 03:18:07;;;;;;;2.72;0.95;;;15.20;99.90;;;;;;6002467;29;20601;-68
2022/06/20 03:21:13;;;;;;;1.20;1.10;;;15.20;99.90;;;;;;6002489;29;20310;-68
2022/06/20 03:24:21;;;;;;;0.93;0.93;;;15.30;99.90;;;;;;6001805;29;20598;-68
2022/06/20 03:27:29;;;;;;;3.72;1.00;;;15.30;99.90;;;;;;6001934;29;20475;-68
2022/06/20 03:30:38;;;;;;;1.17;0.98;;;15.30;99.90;;;;;;6002360;29;20280;-68
2022/06/20 03:33:44;;;;;;;2.90;1.00;;;15.40;99.90;;;;;;6002290;29;20303;-68
2022/06/20 03:36:50;;;;;;;1.10;1.10;;;15.40;99.90;;;;;;6002283;29;20358;-68
2022/06/20 03:39:55;;;;;;;1.20;1.20;;;15.40;99.90;;;;;;6001969;29;20375;-68
2022/06/20 03:43:01;;;;;;;1.13;1.13;;;15.40;99.90;;;;;;6002126;29;20307;-68
2022/06/20 03:46:12;;;;;;;1.02;1.02;;;15.30;99.90;;;;;;6002142;29;20275;-68
2022/06/20 03:49:24;;;;;;;1.75;1.20;;;15.30;99.90;;;;;;6001783;29;20307;-68
2022/06/20 03:52:34;;;;;;;1.20;1.20;;;15.20;99.90;;;;;;6001780;29;20310;-68
2022/06/20 03:55:44;;;;;;;1.70;1.10;;;15.20;99.90;;;;;;6002145;29;20275;-68
2022/06/20 03:58:55;;;;;;;1.30;1.10;;;15.20;99.90;;;;;;6001680;29;20307;-68
2022/06/20 04:02:06;;;;;;;2.03;1.40;;;15.20;99.90;;;;;;6001089;29;20368;-68
2022/06/20 04:05:18;;;;;;;1.10;1.00;;;15.30;99.90;;;;;;6002077;29;20275;-68
2022/06/20 04:10:57;;;;;;;1.20;1.20;;;15.30;99.90;;;;;;6001533;29;20307;-68
2022/06/20 04:11:59;;;;;;;1.77;1.40;;;15.30;99.90;;;;;;6001799;29;20275;-68
2022/06/20 04:15:11;;;;;;;1.52;1.35;;;15.40;99.90;;;;;;6000979;29;20284;-68
2022/06/20 04:18:28;;;;;;;1.20;1.13;;;15.50;99.90;;;;;;6001275;29;20306;-68
2022/06/20 04:21:41;;;;;;;1.52;1.52;;;15.40;99.90;;;;;;5993050;29;20312;-68
2022/06/20 04:24:53;;;;;;;1.42;1.42;;;15.30;99.90;;;;;;5978191;29;20299;-68
2022/06/20 04:28:09;;;;;;;1.60;1.50;;;15.30;99.90;;;;;;5978563;29;20582;-68
2022/06/20 04:31:21;;;;;;;1.40;1.40;;;15.40;99.90;;;;;;5978854;29;20276;-68
2022/06/20 04:34:33;;;;;;;1.30;1.30;;;15.50;99.90;;;;;;5978358;29;20303;-68
2022/06/20 04:37:47;;;;;;;4.03;1.48;;;15.50;99.90;;;;;;5977899;29;20308;-68
2022/06/20 04:40:58;;;;;;;1.83;1.30;;;15.50;99.90;;;;;;5978983;29;20587;-68
2022/06/20 04:44:13;;;;;;;1.30;1.30;;;15.50;99.90;;;;;;5978217;29;20303;-68
2022/06/20 04:47:33;;;;;;;2.17;1.20;;;15.50;99.90;;;;;;5978182;29;20321;-68
2022/06/20 04:50:38;;;;;;;1.40;1.40;;;15.60;99.90;;;;;;5978151;29;20547;-68
2022/06/20 04:53:47;;;;;;;1.33;1.33;;;15.60;99.90;;;;;;5978040;29;20308;-68
2022/06/20 04:56:55;;;;;;;1.67;1.45;;;15.70;99.90;;;;;;5978469;29;20276;-68
2022/06/20 05:00:08;;;;;;;1.48;1.48;;;15.70;99.90;;;;;;5977852;29;20288;-68
2022/06/20 05:03:22;;;;;;;2.28;1.40;;;15.90;99.90;;;;;;5977804;29;20336;-68
2022/06/20 05:06:30;;;;;;;1.80;1.73;;;15.90;99.90;;;;;;5978520;29;20280;-68
2022/06/20 05:09:42;;;;;;;2.22;1.63;;;16.00;99.90;;;;;;5977766;29;20319;-68
2022/06/20 05:12:53;;;;;;;1.50;1.50;;;16.00;99.90;;;;;;5978416;29;20295;-68
2022/06/20 05:15:58;;;;;;;1.73;1.73;;;16.00;99.90;;;;;;5982316;29;20280;-68
2022/06/20 05:19:08;;;;;;;1.63;1.63;;;16.10;99.90;;;;;;5982059;29;20303;-68
2022/06/20 05:22:19;;;;;;;1.60;1.60;;;16.00;99.90;;;;;;5998604;29;20303;-68
2022/06/20 05:25:34;;;;;;;1.88;1.77;;;16.20;99.90;;;;;;6004556;29;20283;-68
2022/06/20 05:28:39;;;;;;;1.80;1.80;;;16.40;99.90;;;;;;6004155;29;20332;-68
2022/06/20 05:31:49;;;;;;;2.03;1.88;;;16.70;99.90;;;;;;6004404;29;20280;-68
2022/06/20 05:35:00;;;;;;;1.67;1.63;;;16.70;99.90;;;;;;6004198;29;20307;-68
2022/06/20 05:38:14;;;;;;;1.77;1.77;;;16.60;99.90;;;;;;6004004;29;20307;-68
2022/06/20 05:41:21;;;;;;;1.90;1.90;;;16.80;99.90;;;;;;6004526;29;20299;-68
2022/06/20 05:44:27;;;;;;;1.90;1.88;;;16.70;99.90;;;;;;6003566;29;20303;-68
2022/06/20 05:47:35;;;;;;;1.83;1.80;;;16.60;99.90;;;;;;6003307;29;20299;-68
2022/06/20 05:50:47;;;;;;;1.90;1.90;;;16.70;99.90;;;;;;5988218;29;20295;-68
2022/06/20 05:53:57;;;;;;;1.60;1.60;;;16.70;99.90;;;;;;6003700;29;20307;-68
2022/06/20 05:57:08;;;;;;;1.80;1.80;;;16.50;99.90;;;;;;6003366;29;20275;-68
2022/06/20 06:00:19;;;;;;;1.77;1.70;;;16.30;99.90;;;;;;6004164;29;20279;-69
2022/06/20 06:03:32;;;;;;;2.10;2.10;;;16.40;99.90;;;;;;6003110;29;20302;-68
2022/06/20 06:06:42;;;;;;;1.83;1.83;;;16.20;99.90;;;;;;6003530;29;20470;-68
2022/06/20 06:09:51;;;;;;;1.83;1.80;;;16.30;99.90;;;;;;6003384;29;20307;-68
2022/06/20 06:13:08;;;;;;;1.73;1.73;;;16.20;99.90;;;;;;6003100;29;20303;-68
2022/06/20 06:19:45;;;;;;;2.00;2.00;;;16.20;99.90;;;;;;6003206;29;20310;-68
2022/06/20 06:22:55;;;;;;;2.25;2.10;;;16.40;99.90;;;;;;6002953;29;20315;-68
2022/06/20 06:26:00;;;;;;;2.30;2.20;;;16.30;99.90;;;;;;6002961;29;20456;-69
2022/06/20 06:29:07;;;;;;;2.20;2.10;;;16.30;99.90;;;;;;6002918;29;20307;-68
2022/06/20 06:32:21;;;;;;;2.38;2.38;;;16.40;99.90;;;;;;6002755;29;20303;-68
2022/06/20 06:35:32;;;;;;;2.60;2.40;;;16.50;99.90;;;;;;6003619;29;20275;-68
2022/06/20 06:38:42;;;;;;;2.20;2.20;;;16.40;99.90;;;;;;6002987;29;20312;-68
2022/06/20 06:41:52;;;;;;;2.50;2.45;;;16.50;99.90;;;;;;6003473;29;20293;-68
2022/06/20 06:45:00;;;;;;;1.95;1.95;;;16.50;99.90;;;;;;6002999;29;20303;-68
2022/06/20 06:48:11;;;;;;;2.85;2.63;;;16.50;99.90;;;;;;6002785;29;20490;-68
2022/06/20 06:51:21;;;;;;;2.92;2.60;;;16.50;99.90;;;;;;6003176;29;20295;-68
2022/06/20 06:54:42;;;;;;;2.35;2.35;;;16.50;99.90;;;;;;6002413;29;20319;-68
2022/06/20 06:57:50;;;;;;;2.10;2.10;;;16.70;99.90;;;;;;6002517;29;20299;-68
2022/06/20 07:01:03;;;;;;;2.40;2.30;;;16.80;99.90;;;;;;6003024;29;20288;-68
2022/06/20 07:04:16;;;;;;;3.20;2.20;;;16.80;99.90;;;;;;6002364;29;20311;-68
2022/06/20 07:07:27;;;;;;;1.98;1.98;;;16.90;99.90;;;;;;6002282;29;20304;-68
2022/06/20 07:10:38;;;;;;;2.50;2.08;;;16.80;99.90;;;;;;6002465;29;20290;-68
2022/06/20 07:13:51;;;;;;;1.90;1.90;;;16.80;99.90;;;;;;6002078;29;20306;-68
2022/06/20 07:17:04;;;;;;;2.47;2.38;;;16.70;99.90;;;;;;6002804;29;20276;-68
2022/06/20 07:20:12;;;;;;;2.53;2.33;;;16.70;99.90;;;;;;6001770;29;20283;-68
2022/06/20 07:23:19;;;;;;;2.35;2.13;;;16.60;99.90;;;;;;6002215;29;20305;-68
2022/06/20 07:26:27;;;;;;;1.85;1.83;;;16.50;99.90;;;;;;6002452;29;20554;-68
2022/06/20 07:29:35;;;;;;;1.80;1.80;;;16.50;99.90;;;;;;6002098;29;20303;-68
2022/06/20 07:32:45;;;;;;;1.70;1.63;;;16.50;99.90;;;;;;6002071;29;20307;-68
2022/06/20 07:35:55;;;;;;;15.27;10.13;;;16.50;99.90;;;;;;6001220;29;20276;-68
2022/06/20 07:39:07;;;;;;;2.78;2.78;;;16.40;99.90;;;;;;6001822;29;20243;-68
2022/06/20 07:42:21;;;;;;;1.42;1.42;;;16.40;99.90;;;;;;6001484;29;20524;-68
2022/06/20 07:45:31;;;;;;;1.38;1.38;;;16.50;99.90;;;;;;6001918;29;20282;-68
2022/06/20 07:48:41;;;;;;;1.88;1.80;;;16.70;99.90;;;;;;6001825;29;20303;-69
2022/06/20 07:51:50;;;;;;;1.50;1.50;;;16.80;99.90;;;;;;6002208;29;20299;-68
2022/06/20 07:54:59;;;;;;;1.95;1.67;;;16.80;99.90;;;;;;6001875;29;20590;-68
2022/06/20 07:58:10;;;;;;;2.30;2.30;;;17.00;99.90;;;;;;6001329;29;20307;-68
2022/06/20 08:01:21;;;;;;;4.68;3.03;;;17.10;99.90;;;;;;6001514;29;20286;-68
2022/06/20 08:04:33;;;;;;;1.83;1.65;;;17.10;99.90;;;;;;6001132;29;20299;-68
2022/06/20 08:07:42;;;;;;;1.63;1.60;;;17.20;99.90;;;;;;6001586;29;20298;-68
2022/06/20 08:10:51;;;;;;;2.00;1.95;;;17.20;99.90;;;;;;6001342;29;20460;-67
2022/06/20 08:13:57;;;;;;;1.85;1.75;;;17.20;99.90;;;;;;6001427;29;20307;-68
2022/06/20 08:17:11;;;;;;;2.08;2.00;;;17.10;99.90;;;;;;6001353;29;20523;-68
2022/06/20 08:20:19;;;;;;;1.70;1.70;;;17.20;99.90;;;;;;6001290;29;20279;-68
2022/06/20 08:23:31;;;;;;;1.77;1.67;;;17.00;99.90;;;;;;6000467;29;20598;-68
2022/06/20 08:26:43;;;;;;;1.80;1.80;;;16.90;99.90;;;;;;6001459;29;20279;-68
2022/06/20 08:29:53;;;;;;;2.70;2.60;;;17.10;99.90;;;;;;6000799;29;20310;-68
2022/06/20 08:33:03;;;;;;;2.70;2.70;;;17.40;99.90;;;;;;6000609;29;20307;-68
2022/06/20 08:36:20;;;;;;;2.15;1.92;;;17.50;99.90;;;;;;6001594;29;20461;-68
2022/06/20 08:39:30;;;;;;;3.13;1.83;;;17.60;99.90;;;;;;6000822;29;20322;-68
2022/06/20 08:43:01;;;;;;;2.08;1.90;;;17.60;99.90;;;;;;6000238;29;20316;-68
2022/06/20 08:47:09;;;;;;;2.30;1.60;;;17.70;99.90;;;;;;6001108;29;20275;-68
2022/06/20 08:50:58;;;;;;;9.73;2.10;;;17.90;99.90;;;;;;6004677;29;20616;-68
2022/06/20 08:54:40;;;;;;;2.03;2.03;;;17.90;99.90;;;;;;5975751;29;20312;-68
2022/06/20 08:57:58;;;;;;;2.88;2.78;;;18.00;99.90;;;;;;5982451;29;20303;-68
2022/06/20 09:01:24;;;;;;;1.90;1.80;;;17.90;99.90;;;;;;6005717;29;20282;-68
2022/06/20 09:04:56;;;;;;;2.70;1.70;;;17.90;99.90;;;;;;6005212;29;20601;-68
2022/06/20 09:08:36;;;;;;;1.95;1.85;;;18.10;99.90;;;;;;6004525;29;20355;-68
2022/06/20 09:11:58;;;;;;;2.90;2.80;;;18.20;99.90;;;;;;6005293;29;20271;-68
2022/06/20 09:15:16;;;;;;;4.63;4.30;;;18.20;99.90;;;;;;6004564;29;20287;-68
2022/06/20 09:18:36;;;;;;;3.40;2.30;;;18.20;99.90;;;;;;6004591;29;20613;-68
2022/06/20 09:21:55;;;;;;;1.75;1.75;;;18.10;99.90;;;;;;6004758;29;20311;-69
2022/06/20 09:25:16;;;;;;;3.28;2.35;;;18.10;99.90;;;;;;6004297;29;20304;-68
2022/06/20 09:28:44;;;;;;;2.20;2.08;;;18.20;99.90;;;;;;6004386;29;20319;-69
2022/06/20 09:32:24;;;;;;;3.00;2.80;;;18.30;99.90;;;;;;6004675;29;20278;-69
2022/06/20 09:36:10;;;;;;;2.70;2.60;;;18.20;99.90;;;;;;6003976;29;20466;-69
2022/06/20 09:39:40;;;;;;;2.58;2.38;;;18.00;99.90;;;;;;6001897;29;20619;-69
2022/06/20 09:42:54;;;;;;;3.25;2.25;;;18.10;99.90;;;;;;6004131;29;20487;-69
2022/06/20 09:46:17;;;;;;;2.58;2.47;;;18.10;99.90;;;;;;6004297;29;20280;-69
2022/06/20 09:49:33;;;;;;;3.00;2.90;;;18.20;99.90;;;;;;6004380;29;20302;-69
2022/06/20 09:52:51;;;;;;;2.60;2.50;;;18.30;99.90;;;;;;6003853;29;20307;-67
2022/06/20 09:56:03;;;;;;;2.40;2.30;;;18.40;99.90;;;;;;6004250;29;20284;-67
2022/06/20 09:59:17;;;;;;;2.03;1.95;;;18.50;99.70;;;;;;6002362;29;20311;-67
2022/06/20 10:02:32;;;;;;;2.50;2.40;;;18.50;98.70;;;;;;6003475;29;20303;-67
2022/06/20 10:05:46;;;;;;;2.00;2.00;;;18.40;98.70;;;;;;6004097;29;20542;-68
2022/06/20 10:09:00;;;;;;;2.45;2.45;;;18.30;99.40;;;;;;6003054;29;20303;-68
2022/06/20 10:12:14;;;;;;;3.00;2.97;;;18.20;99.90;;;;;;6002884;29;20271;-68
2022/06/20 10:15:29;;;;;;;2.92;2.78;;;17.90;99.90;;;;;;6003586;29;20278;-68
2022/06/20 10:18:41;;;;;;;3.00;2.78;;;17.60;99.90;;;;;;6003209;29;20303;-67
2022/06/20 10:21:53;;;;;;;4.55;2.40;;;17.60;99.90;;;;;;6003650;29;20307;-68
2022/06/20 10:25:49;;;;;;;2.20;2.10;;;17.50;99.90;;;;;;6001787;29;20302;-68
2022/06/20 10:29:01;;;;;;;2.20;2.20;;;17.40;99.90;;;;;;6002864;29;20375;-68
2022/06/20 10:32:17;;;;;;;3.35;3.15;;;17.30;99.90;;;;;;6002599;29;20299;-68
2022/06/20 10:35:39;;;;;;;2.67;2.60;;;17.20;99.90;;;;;;6003464;29;20300;-67
2022/06/20 10:39:07;;;;;;;2.75;2.47;;;17.00;99.90;;;;;;6002766;29;20567;-68
2022/06/20 10:42:31;;;;;;;2.92;2.92;;;16.80;99.90;;;;;;6002687;29;20279;-68
2022/06/20 10:45:46;;;;;;;3.30;3.20;;;16.90;99.90;;;;;;6002760;29;20279;-67
2022/06/20 10:49:36;;;;;;;2.88;2.78;;;16.90;99.90;;;;;;6002510;29;20311;-68
2022/06/20 10:52:55;;;;;;;3.03;3.00;;;16.90;99.90;;;;;;5975672;29;20303;-67
2022/06/20 10:56:11;;;;;;;2.88;2.70;;;16.80;99.90;;;;;;6002798;29;20275;-68
2022/06/20 10:59:30;;;;;;;2.90;2.80;;;16.70;99.90;;;;;;6001996;29;20487;-67
2022/06/20 11:03:04;;;;;;;2.90;2.70;;;16.60;99.90;;;;;;6002105;29;20291;-68
2022/06/20 11:06:21;;;;;;;3.20;3.05;;;16.60;99.90;;;;;;6003050;29;20275;-67
2022/06/20 11:09:35;;;;;;;2.45;2.45;;;16.60;99.90;;;;;;6001956;29;20501;-68
2022/06/20 11:12:53;;;;;;;2.85;2.83;;;16.70;99.90;;;;;;6002270;29;20298;-68
2022/06/20 11:16:11;;;;;;;3.10;2.90;;;16.80;99.90;;;;;;6002408;29;20279;-68
2022/06/20 11:19:28;;;;;;;3.30;2.85;;;17.00;99.90;;;;;;6002011;29;20299;-68
2022/06/20 11:22:38;;;;;;;2.75;2.65;;;17.00;99.90;;;;;;6001874;29;20307;-68
2022/06/20 11:25:59;;;;;;;2.67;2.50;;;16.90;99.90;;;;;;6002171;29;20283;-68
2022/06/20 11:29:27;;;;;;;2.50;2.40;;;17.00;99.90;;;;;;6002235;29;20307;-68
2022/06/20 11:32:44;;;;;;;2.75;2.72;;;17.20;99.90;;;;;;6002157;29;20295;-68
2022/06/20 11:35:56;;;;;;;2.50;2.50;;;17.20;99.90;;;;;;6002125;29;20468;-68
2022/06/20 11:39:15;;;;;;;2.80;2.60;;;17.20;99.90;;;;;;6001961;29;20323;-67
2022/06/20 11:42:58;;;;;;;33.63;19.02;;;17.30;99.90;;;;;;6001848;29;20319;-68
2022/06/20 11:46:24;;;;;;;4.35;4.05;;;17.20;99.90;;;;;;6002150;29;20283;-68
2022/06/20 11:49:53;;;;;;;3.13;3.05;;;17.20;99.90;;;;;;6002281;29;20303;-68
2022/06/20 11:53:10;;;;;;;2.90;2.70;;;17.00;99.90;;;;;;6002029;29;20307;-68
2022/06/20 11:56:24;;;;;;;4.25;2.90;;;16.80;99.90;;;;;;6001795;29;20299;-68
2022/06/20 11:59:57;;;;;;;3.97;3.60;;;16.70;99.90;;;;;;6001794;29;20316;-67
2022/06/20 12:03:12;;;;;;;3.00;2.83;;;16.50;99.90;;;;;;6001497;29;20597;-69
2022/06/20 12:06:23;;;;;;;2.47;2.38;;;16.60;99.90;;;;;;6002046;29;20284;-68
2022/06/20 12:09:35;;;;;;;2.30;2.30;;;16.70;99.90;;;;;;6001571;29;20307;-67
2022/06/20 12:12:49;;;;;;;2.50;2.40;;;16.90;99.90;;;;;;6001606;29;20590;-68
2022/06/20 12:16:06;;;;;;;2.30;2.25;;;16.90;99.90;;;;;;6001854;29;20299;-68
2022/06/20 12:26:15;;;;;;;2.50;2.45;;;17.00;99.90;;;;;;6001727;29;20283;-69
2022/06/20 12:29:23;;;;;;;2.55;2.45;;;17.00;99.90;;;;;;6001078;29;20307;-68
2022/06/20 12:32:34;;;;;;;1.70;1.70;;;17.20;99.90;;;;;;6001179;29;20305;-69
2022/06/20 12:35:45;;;;;;;1.80;1.67;;;17.20;99.90;;;;;;6001314;29;20303;-68
2022/06/20 12:38:57;;;;;;;1.90;1.90;;;17.20;99.90;;;;;;6000576;29;20299;-68
2022/06/20 12:42:12;;;;;;;1.70;1.70;;;17.40;99.90;;;;;;6000577;29;20550;-68
2022/06/20 12:45:39;;;;;;;1.30;1.30;;;17.60;99.90;;;;;;6000612;29;20279;-68
2022/06/20 12:49:39;;;;;;;2.63;1.63;;;17.80;99.90;;;;;;6000609;29;20303;-68
2022/06/20 12:52:52;;;;;;;1.70;1.70;;;17.90;99.90;;;;;;5980976;29;20590;-68
2022/06/20 12:56:08;;;;;;;1.95;1.95;;;17.70;99.90;;;;;;6001038;29;20295;-68
2022/06/20 12:59:33;;;;;;;2.63;1.67;;;17.70;99.90;;;;;;6000552;29;20308;-68
2022/06/20 13:03:27;;;;;;;1.98;1.88;;;17.90;99.90;;;;;;6000560;29;20459;-68
2022/06/20 13:07:29;;;;;;;1.70;1.70;;;17.80;99.90;;;;;;5980845;29;20577;-68
2022/06/20 13:10:52;;;;;;;1.77;1.77;;;17.70;99.90;;;;;;5999970;29;20286;-68
2022/06/20 13:14:28;;;;;;;1.50;1.50;;;17.80;99.90;;;;;;6000329;29;20302;-68
2022/06/20 13:17:41;;;;;;;1.80;1.80;;;17.70;99.90;;;;;;5961890;29;20303;-68
2022/06/20 13:20:53;;;;;;;1.60;1.60;;;17.70;99.90;;;;;;6000626;29;20351;-68
2022/06/20 13:24:20;;;;;;;1.98;1.95;;;17.80;99.90;;;;;;5999861;29;20307;-68
2022/06/20 13:27:34;;;;;;;1.58;1.58;;;17.60;99.90;;;;;;6000113;29;20534;-68
2022/06/20 13:30:56;;;;;;;1.90;1.80;;;17.60;99.90;;;;;;6000707;29;20523;-68
2022/06/20 13:34:09;;;;;;;1.70;1.70;;;17.80;99.90;;;;;;5999964;29;20307;-69
2022/06/20 13:37:27;;;;;;;1.48;1.48;;;17.80;99.90;;;;;;6003703;29;20298;-69
2022/06/20 13:40:49;;;;;;;1.70;1.70;;;17.60;99.90;;;;;;6004532;29;20279;-68
2022/06/20 13:44:01;;;;;;;1.90;1.90;;;17.70;99.90;;;;;;6004200;29;20315;-68
2022/06/20 13:47:17;;;;;;;2.00;1.95;;;17.60;99.90;;;;;;6003746;29;20279;-69
2022/06/20 13:50:27;;;;;;;2.55;2.45;;;17.70;99.90;;;;;;6004026;29;20295;-69
2022/06/20 13:53:42;;;;;;;2.35;2.33;;;17.60;99.90;;;;;;6003362;29;20303;-69
2022/06/20 13:57:03;;;;;;;2.13;2.03;;;17.70;99.90;;;;;;6003964;29;20303;-69
2022/06/20 14:00:22;;;;;;;1.80;1.80;;;17.90;99.90;;;;;;6003473;29;20287;-68
2022/06/20 14:03:49;;;;;;;1.70;1.70;;;17.90;99.90;;;;;;6003659;29;20298;-69
2022/06/20 14:07:00;;;;;;;1.50;1.40;;;17.80;99.90;;;;;;6003764;29;20283;-68
2022/06/20 14:10:08;;;;;;;1.90;1.80;;;17.70;99.90;;;;;;6002755;29;20283;-68
2022/06/20 14:13:23;;;;;;;2.92;1.50;;;17.60;99.90;;;;;;6003242;29;20416;-68
2022/06/20 14:16:32;;;;;;;1.80;1.70;;;17.40;99.90;;;;;;6003304;29;20299;-68
2022/06/20 14:19:49;;;;;;;1.58;1.58;;;17.50;99.90;;;;;;6002973;29;20478;-68
2022/06/20 14:22:55;;;;;;;1.88;1.88;;;17.50;99.90;;;;;;6002674;29;20594;-67
2022/06/20 14:26:05;;;;;;;1.50;1.50;;;17.50;99.90;;;;;;6003234;29;20284;-67
2022/06/20 14:29:22;;;;;;;1.60;1.60;;;17.70;99.90;;;;;;6002844;29;20303;-68
2022/06/20 14:32:34;;;;;;;1.35;1.35;;;17.70;99.90;;;;;;6002960;29;20303;-67
2022/06/20 14:35:53;;;;;;;1.90;1.90;;;17.50;99.90;;;;;;6002898;29;20465;-67
2022/06/20 14:39:10;;;;;;;1.83;1.83;;;17.50;99.90;;;;;;6002705;29;20303;-67
2022/06/20 14:42:34;;;;;;;2.40;2.20;;;17.50;99.90;;;;;;6002862;29;20315;-67
2022/06/20 14:46:02;;;;;;;3.00;1.63;;;17.40;99.90;;;;;;6003027;29;20452;-67
2022/06/20 14:49:13;;;;;;;1.40;1.40;;;17.40;99.90;;;;;;6002855;29;20307;-68
2022/06/20 14:52:22;;;;;;;12.10;3.00;;;17.50;99.90;;;;;;6002820;29;20283;-67
2022/06/20 14:55:36;;;;;;;1.50;1.50;;;17.50;99.90;;;;;;6002966;29;20279;-68
2022/06/20 14:58:46;;;;;;;1.60;1.60;;;17.60;99.90;;;;;;6002383;29;20602;-67
2022/06/20 15:01:57;;;;;;;1.75;1.75;;;17.60;99.90;;;;;;6002679;29;20283;-67
2022/06/20 15:05:08;;;;;;;1.60;1.48;;;17.70;99.90;;;;;;6001597;29;20602;-67
2022/06/20 15:08:21;;;;;;;1.52;1.52;;;17.70;99.90;;;;;;6002170;29;20614;-67
2022/06/20 15:11:30;;;;;;;1.42;1.42;;;17.70;99.90;;;;;;6002386;29;20276;-67
2022/06/20 15:14:44;;;;;;;2.22;1.50;;;17.70;99.90;;;;;;6001940;29;20303;-67
2022/06/20 15:18:05;;;;;;;3.10;2.90;;;17.80;99.90;;;;;;6002040;29;20307;-67
2022/06/20 15:21:23;;;;;;;1.88;1.88;;;17.80;99.90;;;;;;6002065;29;20304;-68
2022/06/20 15:24:38;;;;;;;1.50;1.50;;;18.10;99.90;;;;;;6001659;29;20480;-67
2022/06/20 15:27:47;;;;;;;1.80;1.70;;;18.10;99.90;;;;;;6001993;29;20478;-67
2022/06/20 15:30:59;;;;;;;1.55;1.40;;;17.90;99.90;;;;;;6002282;29;20279;-67
2022/06/20 15:37:34;;;;;;;1.10;1.10;;;17.80;99.90;;;;;;6323449;27;20912;-67
2022/06/20 15:40:45;;;;;;;1.30;1.23;;;17.90;99.90;;;;;;6257703;28;20299;-67
2022/06/20 15:43:54;;;;;;;3.40;1.30;;;18.10;99.90;;;;;;6271935;28;20298;-67
2022/06/20 15:47:06;;;;;;;1.38;1.30;;;18.70;99.90;;;;;;6281974;28;20276;-67
2022/06/20 15:50:23;;;;;;;1.35;1.35;;;18.70;99.90;;;;;;6296348;28;20275;-67
2022/06/20 15:53:52;;;;;;;1.50;1.50;;;18.60;99.90;;;;;;6281559;28;20333;-67
2022/06/20 15:57:06;;;;;;;1.52;1.40;;;18.60;99.90;;;;;;6281995;28;20577;-67
2022/06/20 16:00:20;;;;;;;1.50;1.40;;;18.80;99.90;;;;;;6280735;28;20454;-67
2022/06/20 16:03:39;;;;;;;1.40;1.40;;;18.80;99.90;;;;;;6269810;28;20291;-67
2022/06/20 16:06:49;;;;;;;1.45;1.35;;;18.90;99.90;;;;;;6256948;28;20292;-67
2022/06/20 16:10:12;;;;;;;1.30;1.30;;;19.00;99.90;;;;;;6280074;28;20404;-67
2022/06/20 16:13:21;;;;;;;1.85;1.50;;;18.90;99.90;;;;;;6281078;28;20300;-68
2022/06/20 16:16:30;;;;;;;2.45;1.45;;;18.90;99.90;;;;;;6281383;28;20291;-67
2022/06/20 16:19:41;;;;;;;1.55;1.40;;;19.00;99.90;;;;;;6259772;28;20295;-67
2022/06/20 16:22:46;;;;;;;2.90;1.60;;;19.10;99.90;;;;;;6262925;28;20407;-67
2022/06/20 16:26:04;;;;;;;1.77;1.42;;;19.30;99.90;;;;;;6281703;28;20276;-70
2022/06/20 16:29:18;;;;;;;1.98;1.50;;;19.00;99.90;;;;;;6263230;28;20316;-68
2022/06/20 16:32:34;;;;;;;1.30;1.30;;;19.00;99.90;;;;;;6258960;28;20291;-68
2022/06/20 16:35:39;;;;;;;1.65;1.63;;;19.00;99.90;;;;;;6280480;28;20304;-68
2022/06/20 16:38:44;;;;;;;1.48;1.48;;;19.10;99.90;;;;;;6279789;28;20295;-67
2022/06/20 16:41:57;;;;;;;1.38;1.38;;;19.00;99.90;;;;;;6281265;28;20291;-68
2022/06/20 16:45:14;;;;;;;2.20;2.10;;;19.00;99.90;;;;;;6280043;28;20272;-68
2022/06/20 16:49:03;;;;;;;1.58;1.58;;;18.90;99.90;;;;;;6256363;28;20309;-67
2022/06/20 16:52:15;;;;;;;1.50;1.50;;;18.90;99.90;;;;;;6240686;28;20273;-67
2022/06/20 16:55:25;;;;;;;1.50;1.50;;;18.90;99.90;;;;;;6264218;28;20272;-67
2022/06/20 16:58:47;;;;;;;1.40;1.40;;;18.90;99.90;;;;;;6251454;28;20332;-67
2022/06/20 17:02:03;;;;;;;1.30;1.30;;;19.00;99.90;;;;;;6239794;28;20277;-67
2022/06/20 17:05:16;;;;;;;1.20;1.20;;;19.00;99.50;;;;;;6238695;28;20276;-68